sensor_id;sensor_type;location;lat;lon;timestamp;P1;P2;P0
72793;PMS5003;63436;26.334;50.194;2023-01-04T00:00:53;213;202;
72793;PMS5003;63436;26.334;50.194;2023-01-04T00:03:21;201;197;
72793;PMS5003;63436;26.334;50.194;2023-01-04T00:05:45;221;208;
72793;PMS5003;63436;26.334;50.194;2023-01-04T00:08:09;207;201;
72793;PMS5003;63436;26.334;50.194;2023-01-04T00:10:34;222;214;
72793;PMS5003;63436;26.334;50.194;2023-01-04T00:13:02;216;208;
72793;PMS5003;63436;26.334;50.194;2023-01-04T00:15:27;211;204;
72793;PMS5003;63436;26.334;50.194;2023-01-04T00:17:55;221;215;
72793;PMS5003;63436;26.334;50.194;2023-01-04T00:20:16;219;214;
72793;PMS5003;63436;26.334;50.194;2023-01-04T00:22:42;219;208;
72793;PMS5003;63436;26.334;50.194;2023-01-04T00:25:08;211;204;
72793;PMS5003;63436;26.334;50.194;2023-01-04T00:27:33;214;205;
72793;PMS5003;63436;26.334;50.194;2023-01-04T00:29:58;208;197;
72793;PMS5003;63436;26.334;50.194;2023-01-04T00:32:24;212;202;
72793;PMS5003;63436;26.334;50.194;2023-01-04T00:34:49;231;219;
72793;PMS5003;63436;26.334;50.194;2023-01-04T00:37:15;217;210;
72793;PMS5003;63436;26.334;50.194;2023-01-04T00:39:41;219;211;
72793;PMS5003;63436;26.334;50.194;2023-01-04T00:42:06;225;214;
72793;PMS5003;63436;26.334;50.194;2023-01-04T00:44:32;242;231;
72793;PMS5003;63436;26.334;50.194;2023-01-04T00:46:57;240;224;
72793;PMS5003;63436;26.334;50.194;2023-01-04T00:49:22;238;227;
72793;PMS5003;63436;26.334;50.194;2023-01-04T00:51:48;231;215;
72793;PMS5003;63436;26.334;50.194;2023-01-04T00:54:14;245;230;
72793;PMS5003;63436;26.334;50.194;2023-01-04T00:56:39;231;215;
72793;PMS5003;63436;26.334;50.194;2023-01-04T00:59:04;227;218;
72793;PMS5003;63436;26.334;50.194;2023-01-04T01:01:30;228;215;
72793;PMS5003;63436;26.334;50.194;2023-01-04T01:03:55;221;212;
72793;PMS5003;63436;26.334;50.194;2023-01-04T01:06:21;225;217;
72793;PMS5003;63436;26.334;50.194;2023-01-04T01:08:47;217;206;
72793;PMS5003;63436;26.334;50.194;2023-01-04T01:11:12;217;211;
72793;PMS5003;63436;26.334;50.194;2023-01-04T01:13:38;219;209;
72793;PMS5003;63436;26.334;50.194;2023-01-04T01:16:04;200;195;
72793;PMS5003;63436;26.334;50.194;2023-01-04T01:18:28;217;203;
72793;PMS5003;63436;26.334;50.194;2023-01-04T01:20:54;216;205;
72793;PMS5003;63436;26.334;50.194;2023-01-04T01:23:20;195;191;
72793;PMS5003;63436;26.334;50.194;2023-01-04T01:25:44;209;202;
72793;PMS5003;63436;26.334;50.194;2023-01-04T01:28:10;216;197;
72793;PMS5003;63436;26.334;50.194;2023-01-04T01:30:38;209;197;
72793;PMS5003;63436;26.334;50.194;2023-01-04T01:33:01;210;205;
72793;PMS5003;63436;26.334;50.194;2023-01-04T01:35:27;212;203;
72793;PMS5003;63436;26.334;50.194;2023-01-04T01:37:53;216;205;
72793;PMS5003;63436;26.334;50.194;2023-01-04T01:40:17;210;203;
72793;PMS5003;63436;26.334;50.194;2023-01-04T01:42:43;205;201;
72793;PMS5003;63436;26.334;50.194;2023-01-04T01:47:35;220;212;
72793;PMS5003;63436;26.334;50.194;2023-01-04T01:49:59;224;210;
72793;PMS5003;63436;26.334;50.194;2023-01-04T01:52:26;211;200;
72793;PMS5003;63436;26.334;50.194;2023-01-04T01:54:51;218;206;
72793;PMS5003;63436;26.334;50.194;2023-01-04T01:57:15;230;219;
72793;PMS5003;63436;26.334;50.194;2023-01-04T01:59:41;222;209;
72793;PMS5003;63436;26.334;50.194;2023-01-04T02:02:06;221;214;
72793;PMS5003;63436;26.334;50.194;2023-01-04T02:04:31;216;206;
72793;PMS5003;63436;26.334;50.194;2023-01-04T02:06:57;215;205;
72793;PMS5003;63436;26.334;50.194;2023-01-04T02:09:22;239;232;
72793;PMS5003;63436;26.334;50.194;2023-01-04T02:11:49;220;210;
72793;PMS5003;63436;26.334;50.194;2023-01-04T02:14:14;221;213;
72793;PMS5003;63436;26.334;50.194;2023-01-04T02:16:44;229;214;
72793;PMS5003;63436;26.334;50.194;2023-01-04T02:19:10;219;206;
72793;PMS5003;63436;26.334;50.194;2023-01-04T02:21:33;218;207;
72793;PMS5003;63436;26.334;50.194;2023-01-04T02:24:03;228;218;
72793;PMS5003;63436;26.334;50.194;2023-01-04T02:28:54;220;207;
72793;PMS5003;63436;26.334;50.194;2023-01-04T02:31:14;219;208;
72793;PMS5003;63436;26.334;50.194;2023-01-04T02:33:42;214;202;
72793;PMS5003;63436;26.334;50.194;2023-01-04T02:36:05;208;203;
72793;PMS5003;63436;26.334;50.194;2023-01-04T02:38:30;217;200;
72793;PMS5003;63436;26.334;50.194;2023-01-04T02:40:55;228;216;
72793;PMS5003;63436;26.334;50.194;2023-01-04T02:43:22;243;229;
72793;PMS5003;63436;26.334;50.194;2023-01-04T02:45:46;240;225;
72793;PMS5003;63436;26.334;50.194;2023-01-04T02:48:10;238;223;
72793;PMS5003;63436;26.334;50.194;2023-01-04T02:50:37;235;224;
72793;PMS5003;63436;26.334;50.194;2023-01-04T02:53:03;240;221;
72793;PMS5003;63436;26.334;50.194;2023-01-04T02:55:28;241;230;
72793;PMS5003;63436;26.334;50.194;2023-01-04T02:57:53;242;228;
72793;PMS5003;63436;26.334;50.194;2023-01-04T03:00:21;240;227;
72793;PMS5003;63436;26.334;50.194;2023-01-04T03:02:49;240;228;
72793;PMS5003;63436;26.334;50.194;2023-01-04T03:05:09;244;226;
72793;PMS5003;63436;26.334;50.194;2023-01-04T03:07:34;246;230;
72793;PMS5003;63436;26.334;50.194;2023-01-04T03:09:59;242;233;
72793;PMS5003;63436;26.334;50.194;2023-01-04T03:12:25;247;228;
72793;PMS5003;63436;26.334;50.194;2023-01-04T03:14:50;244;233;
72793;PMS5003;63436;26.334;50.194;2023-01-04T03:17:15;245;232;
72793;PMS5003;63436;26.334;50.194;2023-01-04T03:19:40;241;232;
72793;PMS5003;63436;26.334;50.194;2023-01-04T03:22:06;247;232;
72793;PMS5003;63436;26.334;50.194;2023-01-04T03:24:31;249;233;
72793;PMS5003;63436;26.334;50.194;2023-01-04T03:26:57;244;229;
72793;PMS5003;63436;26.334;50.194;2023-01-04T03:29:24;234;224;
72793;PMS5003;63436;26.334;50.194;2023-01-04T03:31:48;242;226;
72793;PMS5003;63436;26.334;50.194;2023-01-04T03:34:13;265;242;
72793;PMS5003;63436;26.334;50.194;2023-01-04T03:36:43;238;227;
72793;PMS5003;63436;26.334;50.194;2023-01-04T03:39:06;246;236;
72793;PMS5003;63436;26.334;50.194;2023-01-04T03:41:29;245;230;
72793;PMS5003;63436;26.334;50.194;2023-01-04T03:43:56;249;236;
72793;PMS5003;63436;26.334;50.194;2023-01-04T03:46:20;240;227;
72793;PMS5003;63436;26.334;50.194;2023-01-04T03:48:45;259;241;
72793;PMS5003;63436;26.334;50.194;2023-01-04T03:51:11;276;257;
72793;PMS5003;63436;26.334;50.194;2023-01-04T03:53:37;270;249;
72793;PMS5003;63436;26.334;50.194;2023-01-04T03:56:01;265;249;
72793;PMS5003;63436;26.334;50.194;2023-01-04T03:58:26;252;235;
72793;PMS5003;63436;26.334;50.194;2023-01-04T04:00:52;260;242;
72793;PMS5003;63436;26.334;50.194;2023-01-04T04:03:17;261;241;
72793;PMS5003;63436;26.334;50.194;2023-01-04T04:05:43;267;249;
72793;PMS5003;63436;26.334;50.194;2023-01-04T04:08:09;251;241;
72793;PMS5003;63436;26.334;50.194;2023-01-04T04:10:34;257;252;
72793;PMS5003;63436;26.334;50.194;2023-01-04T04:12:59;258;244;
72793;PMS5003;63436;26.334;50.194;2023-01-04T04:15:25;265;246;
72793;PMS5003;63436;26.334;50.194;2023-01-04T04:17:49;244;227;
72793;PMS5003;63436;26.334;50.194;2023-01-04T04:20:15;238;227;
72793;PMS5003;63436;26.334;50.194;2023-01-04T04:22:41;252;237;
72793;PMS5003;63436;26.334;50.194;2023-01-04T04:25:06;230;226;
72793;PMS5003;63436;26.334;50.194;2023-01-04T04:27:31;239;229;
72793;PMS5003;63436;26.334;50.194;2023-01-04T04:29:57;244;239;
72793;PMS5003;63436;26.334;50.194;2023-01-04T04:32:22;244;236;
72793;PMS5003;63436;26.334;50.194;2023-01-04T04:34:47;234;227;
72793;PMS5003;63436;26.334;50.194;2023-01-04T04:37:13;242;231;
72793;PMS5003;63436;26.334;50.194;2023-01-04T04:39:38;233;221;
72793;PMS5003;63436;26.334;50.194;2023-01-04T04:42:04;241;228;
72793;PMS5003;63436;26.334;50.194;2023-01-04T04:44:30;232;217;
72793;PMS5003;63436;26.334;50.194;2023-01-04T04:46:55;236;223;
72793;PMS5003;63436;26.334;50.194;2023-01-04T04:49:20;244;234;
72793;PMS5003;63436;26.334;50.194;2023-01-04T04:51:45;229;221;
72793;PMS5003;63436;26.334;50.194;2023-01-04T04:54:14;229;219;
72793;PMS5003;63436;26.334;50.194;2023-01-04T04:56:36;242;231;
72793;PMS5003;63436;26.334;50.194;2023-01-04T04:59:03;225;219;
72793;PMS5003;63436;26.334;50.194;2023-01-04T05:01:27;233;218;
72793;PMS5003;63436;26.334;50.194;2023-01-04T05:03:53;243;235;
72793;PMS5003;63436;26.334;50.194;2023-01-04T05:06:19;235;220;
72793;PMS5003;63436;26.334;50.194;2023-01-04T05:08:45;235;218;
72793;PMS5003;63436;26.334;50.194;2023-01-04T05:11:11;217;207;
72793;PMS5003;63436;26.334;50.194;2023-01-04T05:13:37;228;222;
72793;PMS5003;63436;26.334;50.194;2023-01-04T05:16:02;228;216;
72793;PMS5003;63436;26.334;50.194;2023-01-04T05:18:27;226;218;
72793;PMS5003;63436;26.334;50.194;2023-01-04T05:20:53;246;228;
72793;PMS5003;63436;26.334;50.194;2023-01-04T05:23:18;230;216;
72793;PMS5003;63436;26.334;50.194;2023-01-04T05:25:44;230;221;
72793;PMS5003;63436;26.334;50.194;2023-01-04T05:28:09;229;224;
72793;PMS5003;63436;26.334;50.194;2023-01-04T05:30:34;232;216;
72793;PMS5003;63436;26.334;50.194;2023-01-04T05:33:00;234;227;
72793;PMS5003;63436;26.334;50.194;2023-01-04T05:35:26;229;216;
72793;PMS5003;63436;26.334;50.194;2023-01-04T05:37:50;239;229;
72793;PMS5003;63436;26.334;50.194;2023-01-04T05:40:16;251;231;
72793;PMS5003;63436;26.334;50.194;2023-01-04T05:42:42;245;229;
72793;PMS5003;63436;26.334;50.194;2023-01-04T05:45:07;231;216;
72793;PMS5003;63436;26.334;50.194;2023-01-04T05:47:33;248;225;
72793;PMS5003;63436;26.334;50.194;2023-01-04T05:49:58;261;235;
72793;PMS5003;63436;26.334;50.194;2023-01-04T05:52:23;254;233;
72793;PMS5003;63436;26.334;50.194;2023-01-04T05:54:49;250;239;
72793;PMS5003;63436;26.334;50.194;2023-01-04T05:57:15;255;247;
72793;PMS5003;63436;26.334;50.194;2023-01-04T05:59:40;252;230;
72793;PMS5003;63436;26.334;50.194;2023-01-04T06:02:05;256;240;
72793;PMS5003;63436;26.334;50.194;2023-01-04T06:04:30;265;244;
72793;PMS5003;63436;26.334;50.194;2023-01-04T06:06:56;263;247;
72793;PMS5003;63436;26.334;50.194;2023-01-04T06:09:21;262;250;
72793;PMS5003;63436;26.334;50.194;2023-01-04T06:11:47;247;229;
72793;PMS5003;63436;26.334;50.194;2023-01-04T06:14:12;261;249;
72793;PMS5003;63436;26.334;50.194;2023-01-04T06:16:38;265;244;
72793;PMS5003;63436;26.334;50.194;2023-01-04T06:19:03;238;225;
72793;PMS5003;63436;26.334;50.194;2023-01-04T06:21:29;248;231;
72793;PMS5003;63436;26.334;50.194;2023-01-04T06:23:54;236;222;
72793;PMS5003;63436;26.334;50.194;2023-01-04T06:26:20;262;255;
72793;PMS5003;63436;26.334;50.194;2023-01-04T06:28:45;283;265;
72793;PMS5003;63436;26.334;50.194;2023-01-04T06:31:11;271;266;
72793;PMS5003;63436;26.334;50.194;2023-01-04T06:33:38;262;253;
72793;PMS5003;63436;26.334;50.194;2023-01-04T06:36:03;261;251;
72793;PMS5003;63436;26.334;50.194;2023-01-04T06:38:29;274;261;
72793;PMS5003;63436;26.334;50.194;2023-01-04T06:40:54;255;242;
72793;PMS5003;63436;26.334;50.194;2023-01-04T06:43:19;254;244;
72793;PMS5003;63436;26.334;50.194;2023-01-04T06:45:45;250;237;
72793;PMS5003;63436;26.334;50.194;2023-01-04T06:48:10;231;224;
72793;PMS5003;63436;26.334;50.194;2023-01-04T06:50:36;266;230;
72793;PMS5003;63436;26.334;50.194;2023-01-04T06:53:01;239;220;
72793;PMS5003;63436;26.334;50.194;2023-01-04T06:55:27;229;222;
72793;PMS5003;63436;26.334;50.194;2023-01-04T06:57:52;238;227;
72793;PMS5003;63436;26.334;50.194;2023-01-04T07:00:18;248;229;
72793;PMS5003;63436;26.334;50.194;2023-01-04T07:02:44;256;241;
72793;PMS5003;63436;26.334;50.194;2023-01-04T07:05:09;236;227;
72793;PMS5003;63436;26.334;50.194;2023-01-04T07:07:34;244;219;
72793;PMS5003;63436;26.334;50.194;2023-01-04T07:10:00;228;216;
72793;PMS5003;63436;26.334;50.194;2023-01-04T07:12:25;230;215;
72793;PMS5003;63436;26.334;50.194;2023-01-04T07:14:50;237;218;
72793;PMS5003;63436;26.334;50.194;2023-01-04T07:17:17;235;225;
72793;PMS5003;63436;26.334;50.194;2023-01-04T07:19:41;243;229;
72793;PMS5003;63436;26.334;50.194;2023-01-04T07:22:07;250;230;
72793;PMS5003;63436;26.334;50.194;2023-01-04T07:24:34;223;213;
72793;PMS5003;63436;26.334;50.194;2023-01-04T07:26:58;226;209;
72793;PMS5003;63436;26.334;50.194;2023-01-04T07:29:23;238;222;
72793;PMS5003;63436;26.334;50.194;2023-01-04T07:31:49;235;225;
72793;PMS5003;63436;26.334;50.194;2023-01-04T07:34:14;226;218;
72793;PMS5003;63436;26.334;50.194;2023-01-04T07:36:39;221;209;
72793;PMS5003;63436;26.334;50.194;2023-01-04T07:39:05;224;216;
72793;PMS5003;63436;26.334;50.194;2023-01-04T07:41:29;225;212;
72793;PMS5003;63436;26.334;50.194;2023-01-04T07:43:55;231;220;
72793;PMS5003;63436;26.334;50.194;2023-01-04T07:46:20;232;219;
72793;PMS5003;63436;26.334;50.194;2023-01-04T07:48:46;228;207;
72793;PMS5003;63436;26.334;50.194;2023-01-04T07:51:11;229;217;
72793;PMS5003;63436;26.334;50.194;2023-01-04T07:53:37;233;223;
72793;PMS5003;63436;26.334;50.194;2023-01-04T07:56:02;219;211;
72793;PMS5003;63436;26.334;50.194;2023-01-04T07:58:30;235;219;
72793;PMS5003;63436;26.334;50.194;2023-01-04T08:00:53;223;215;
72793;PMS5003;63436;26.334;50.194;2023-01-04T08:03:18;226;212;
72793;PMS5003;63436;26.334;50.194;2023-01-04T08:05:44;225;209;
72793;PMS5003;63436;26.334;50.194;2023-01-04T08:08:10;228;210;
72793;PMS5003;63436;26.334;50.194;2023-01-04T08:10:34;232;217;
72793;PMS5003;63436;26.334;50.194;2023-01-04T08:13:00;227;214;
72793;PMS5003;63436;26.334;50.194;2023-01-04T08:15:25;222;214;
72793;PMS5003;63436;26.334;50.194;2023-01-04T08:17:50;237;226;
72793;PMS5003;63436;26.334;50.194;2023-01-04T08:20:15;248;230;
72793;PMS5003;63436;26.334;50.194;2023-01-04T08:22:41;239;224;
72793;PMS5003;63436;26.334;50.194;2023-01-04T08:25:07;222;215;
72793;PMS5003;63436;26.334;50.194;2023-01-04T08:27:32;253;228;
72793;PMS5003;63436;26.334;50.194;2023-01-04T08:29:58;234;221;
72793;PMS5003;63436;26.334;50.194;2023-01-04T08:32:23;227;219;
72793;PMS5003;63436;26.334;50.194;2023-01-04T08:34:49;234;218;
72793;PMS5003;63436;26.334;50.194;2023-01-04T08:37:15;229;213;
72793;PMS5003;63436;26.334;50.194;2023-01-04T08:39:39;237;213;
72793;PMS5003;63436;26.334;50.194;2023-01-04T08:42:05;229;217;
72793;PMS5003;63436;26.334;50.194;2023-01-04T08:44:31;229;207;
72793;PMS5003;63436;26.334;50.194;2023-01-04T08:46:56;227;218;
72793;PMS5003;63436;26.334;50.194;2023-01-04T08:49:21;222;210;
72793;PMS5003;63436;26.334;50.194;2023-01-04T08:51:47;241;217;
72793;PMS5003;63436;26.334;50.194;2023-01-04T08:54:13;239;221;
72793;PMS5003;63436;26.334;50.194;2023-01-04T08:56:38;240;212;
72793;PMS5003;63436;26.334;50.194;2023-01-04T08:59:04;225;212;
72793;PMS5003;63436;26.334;50.194;2023-01-04T09:01:30;233;219;
72793;PMS5003;63436;26.334;50.194;2023-01-04T09:03:54;223;203;
72793;PMS5003;63436;26.334;50.194;2023-01-04T09:06:20;220;211;
72793;PMS5003;63436;26.334;50.194;2023-01-04T09:08:45;229;216;
72793;PMS5003;63436;26.334;50.194;2023-01-04T09:11:11;226;208;
72793;PMS5003;63436;26.334;50.194;2023-01-04T09:13:36;227;204;
72793;PMS5003;63436;26.334;50.194;2023-01-04T09:16:02;226;216;
72793;PMS5003;63436;26.334;50.194;2023-01-04T09:18:28;240;224;
72793;PMS5003;63436;26.334;50.194;2023-01-04T09:20:53;233;216;
72793;PMS5003;63436;26.334;50.194;2023-01-04T09:23:19;225;214;
72793;PMS5003;63436;26.334;50.194;2023-01-04T09:25:44;227;216;
72793;PMS5003;63436;26.334;50.194;2023-01-04T09:28:10;224;207;
72793;PMS5003;63436;26.334;50.194;2023-01-04T09:30:35;225;214;
72793;PMS5003;63436;26.334;50.194;2023-01-04T09:33:01;223;205;
72793;PMS5003;63436;26.334;50.194;2023-01-04T09:35:26;234;224;
72793;PMS5003;63436;26.334;50.194;2023-01-04T09:37:52;234;215;
72793;PMS5003;63436;26.334;50.194;2023-01-04T09:40:18;231;212;
72793;PMS5003;63436;26.334;50.194;2023-01-04T09:42:43;224;208;
72793;PMS5003;63436;26.334;50.194;2023-01-04T09:45:14;210;207;
72793;PMS5003;63436;26.334;50.194;2023-01-04T09:47:34;216;203;
72793;PMS5003;63436;26.334;50.194;2023-01-04T09:50:00;213;207;
72793;PMS5003;63436;26.334;50.194;2023-01-04T09:52:25;223;201;
72793;PMS5003;63436;26.334;50.194;2023-01-04T09:54:49;210;192;
72793;PMS5003;63436;26.334;50.194;2023-01-04T09:57:16;211;202;
72793;PMS5003;63436;26.334;50.194;2023-01-04T09:59:40;209;202;
72793;PMS5003;63436;26.334;50.194;2023-01-04T10:02:10;220;209;
72793;PMS5003;63436;26.334;50.194;2023-01-04T10:04:35;203;192;
72793;PMS5003;63436;26.334;50.194;2023-01-04T10:06:56;198;189;
72793;PMS5003;63436;26.334;50.194;2023-01-04T10:09:21;208;199;
72793;PMS5003;63436;26.334;50.194;2023-01-04T10:11:52;217;200;
72793;PMS5003;63436;26.334;50.194;2023-01-04T10:14:18;215;206;
72793;PMS5003;63436;26.334;50.194;2023-01-04T10:16:41;204;194;
72793;PMS5003;63436;26.334;50.194;2023-01-04T10:19:06;216;202;
72793;PMS5003;63436;26.334;50.194;2023-01-04T10:21:33;195;186;
72793;PMS5003;63436;26.334;50.194;2023-01-04T10:23:59;185;179;
72793;PMS5003;63436;26.334;50.194;2023-01-04T10:26:21;190;181;
72793;PMS5003;63436;26.334;50.194;2023-01-04T10:28:51;174;166;
72793;PMS5003;63436;26.334;50.194;2023-01-04T10:31:12;180;165;
72793;PMS5003;63436;26.334;50.194;2023-01-04T10:33:38;179;170;
72793;PMS5003;63436;26.334;50.194;2023-01-04T10:36:02;180;170;
72793;PMS5003;63436;26.334;50.194;2023-01-04T10:38:30;177;167;
72793;PMS5003;63436;26.334;50.194;2023-01-04T10:40:53;170;162;
72793;PMS5003;63436;26.334;50.194;2023-01-04T10:43:23;172;167;
72793;PMS5003;63436;26.334;50.194;2023-01-04T10:45:47;156;152;
72793;PMS5003;63436;26.334;50.194;2023-01-04T10:48:11;167;157;
72793;PMS5003;63436;26.334;50.194;2023-01-04T10:50:36;159;148;
72793;PMS5003;63436;26.334;50.194;2023-01-04T10:53:02;157;150;
72793;PMS5003;63436;26.334;50.194;2023-01-04T10:55:28;153;149;
72793;PMS5003;63436;26.334;50.194;2023-01-04T10:57:53;171;163;
72793;PMS5003;63436;26.334;50.194;2023-01-04T11:00:18;159;149;
72793;PMS5003;63436;26.334;50.194;2023-01-04T11:02:43;172;163;
72793;PMS5003;63436;26.334;50.194;2023-01-04T11:05:09;170;161;
72793;PMS5003;63436;26.334;50.194;2023-01-04T11:07:35;182;169;
72793;PMS5003;63436;26.334;50.194;2023-01-04T11:10:00;164;159;
72793;PMS5003;63436;26.334;50.194;2023-01-04T11:12:24;161;156;
72793;PMS5003;63436;26.334;50.194;2023-01-04T11:14:49;167;160;
72793;PMS5003;63436;26.334;50.194;2023-01-04T11:17:14;168;162;
72793;PMS5003;63436;26.334;50.194;2023-01-04T11:19:40;171;159;
72793;PMS5003;63436;26.334;50.194;2023-01-04T11:22:08;166;162;
72793;PMS5003;63436;26.334;50.194;2023-01-04T11:24:31;173;163;
72793;PMS5003;63436;26.334;50.194;2023-01-04T11:26:56;164;156;
72793;PMS5003;63436;26.334;50.194;2023-01-04T11:29:25;160;156;
72793;PMS5003;63436;26.334;50.194;2023-01-04T11:31:48;170;164;
72793;PMS5003;63436;26.334;50.194;2023-01-04T11:34:13;165;154;
72793;PMS5003;63436;26.334;50.194;2023-01-04T11:36:39;164;156;
72793;PMS5003;63436;26.334;50.194;2023-01-04T11:39:04;157;149;
72793;PMS5003;63436;26.334;50.194;2023-01-04T11:41:29;143;141;
72793;PMS5003;63436;26.334;50.194;2023-01-04T11:43:56;157;150;
72793;PMS5003;63436;26.334;50.194;2023-01-04T11:46:20;160;152;
72793;PMS5003;63436;26.334;50.194;2023-01-04T11:48:46;161;154;
72793;PMS5003;63436;26.334;50.194;2023-01-04T11:51:16;159;148;
72793;PMS5003;63436;26.334;50.194;2023-01-04T11:53:37;160;150;
72793;PMS5003;63436;26.334;50.194;2023-01-04T11:56:10;169;157;
72793;PMS5003;63436;26.334;50.194;2023-01-04T11:58:27;152;145;
72793;PMS5003;63436;26.334;50.194;2023-01-04T12:00:54;158;147;
72793;PMS5003;63436;26.334;50.194;2023-01-04T12:03:22;151;143;
72793;PMS5003;63436;26.334;50.194;2023-01-04T12:05:45;148;139;
72793;PMS5003;63436;26.334;50.194;2023-01-04T12:08:11;157;149;
72793;PMS5003;63436;26.334;50.194;2023-01-04T12:10:35;148;135;
72793;PMS5003;63436;26.334;50.194;2023-01-04T12:13:01;145;138;
72793;PMS5003;63436;26.334;50.194;2023-01-04T12:15:28;134;129;
72793;PMS5003;63436;26.334;50.194;2023-01-04T12:17:54;150;144;
72793;PMS5003;63436;26.334;50.194;2023-01-04T12:20:18;133;125;
72793;PMS5003;63436;26.334;50.194;2023-01-04T12:22:44;149;140;
72793;PMS5003;63436;26.334;50.194;2023-01-04T12:27:34;141;138;
72793;PMS5003;63436;26.334;50.194;2023-01-04T12:30:01;143;133;
72793;PMS5003;63436;26.334;50.194;2023-01-04T12:34:52;147;140;
72793;PMS5003;63436;26.334;50.194;2023-01-04T12:39:42;149;143;
72793;PMS5003;63436;26.334;50.194;2023-01-04T12:42:09;156;138;
72793;PMS5003;63436;26.334;50.194;2023-01-04T12:46:59;145;140;
72793;PMS5003;63436;26.334;50.194;2023-01-04T12:54:21;160;145;
72793;PMS5003;63436;26.334;50.194;2023-01-04T12:59:08;146;139;
72793;PMS5003;63436;26.334;50.194;2023-01-04T13:01:31;158;148;
72793;PMS5003;63436;26.334;50.194;2023-01-04T13:03:58;146;138;
72793;PMS5003;63436;26.334;50.194;2023-01-04T13:06:22;146;136;
72793;PMS5003;63436;26.334;50.194;2023-01-04T13:08:49;159;148;
72793;PMS5003;63436;26.334;50.194;2023-01-04T13:11:17;144;136;
72793;PMS5003;63436;26.334;50.194;2023-01-04T13:13:40;152;142;
72793;PMS5003;63436;26.334;50.194;2023-01-04T13:16:08;147;134;
72793;PMS5003;63436;26.334;50.194;2023-01-04T13:18:33;133;125;
72793;PMS5003;63436;26.334;50.194;2023-01-04T13:20:56;129;124;
72793;PMS5003;63436;26.334;50.194;2023-01-04T13:23:22;122;113;
72793;PMS5003;63436;26.334;50.194;2023-01-04T13:25:47;108;102;
72793;PMS5003;63436;26.334;50.194;2023-01-04T13:28:15;108;103;
72793;PMS5003;63436;26.334;50.194;2023-01-04T13:30:38;101;96;
72793;PMS5003;63436;26.334;50.194;2023-01-04T13:33:07;95;93;
72793;PMS5003;63436;26.334;50.194;2023-01-04T13:35:29;85;78;
72793;PMS5003;63436;26.334;50.194;2023-01-04T13:37:54;78;78;
72793;PMS5003;63436;26.334;50.194;2023-01-04T13:40:21;75;66;
72793;PMS5003;63436;26.334;50.194;2023-01-04T13:42:45;62;58;
72793;PMS5003;63436;26.334;50.194;2023-01-04T13:47:37;50;45;
72793;PMS5003;63436;26.334;50.194;2023-01-04T13:50:01;50;49;
72793;PMS5003;63436;26.334;50.194;2023-01-04T13:52:27;44;42;
72793;PMS5003;63436;26.334;50.194;2023-01-04T13:57:18;43;40;
72793;PMS5003;63436;26.334;50.194;2023-01-04T13:59:43;44;42;
72793;PMS5003;63436;26.334;50.194;2023-01-04T14:02:12;47;44;
72793;PMS5003;63436;26.334;50.194;2023-01-04T14:04:33;43;41;
72793;PMS5003;63436;26.334;50.194;2023-01-04T14:06:58;41;40;
72793;PMS5003;63436;26.334;50.194;2023-01-04T14:09:24;39;39;
72793;PMS5003;63436;26.334;50.194;2023-01-04T14:11:49;48;43;
72793;PMS5003;63436;26.334;50.194;2023-01-04T14:14:17;52;44;
72793;PMS5003;63436;26.334;50.194;2023-01-04T14:16:40;40;39;
72793;PMS5003;63436;26.334;50.194;2023-01-04T14:21:32;42;42;
72793;PMS5003;63436;26.334;50.194;2023-01-04T14:23:57;42;41;
72793;PMS5003;63436;26.334;50.194;2023-01-04T14:26:28;46;43;
72793;PMS5003;63436;26.334;50.194;2023-01-04T14:28:48;47;44;
72793;PMS5003;63436;26.334;50.194;2023-01-04T14:31:21;43;41;
72793;PMS5003;63436;26.334;50.194;2023-01-04T14:33:41;44;42;
72793;PMS5003;63436;26.334;50.194;2023-01-04T14:36:09;47;45;
72793;PMS5003;63436;26.334;50.194;2023-01-04T14:38:34;50;48;
72793;PMS5003;63436;26.334;50.194;2023-01-04T14:40:56;48;47;
72793;PMS5003;63436;26.334;50.194;2023-01-04T14:43:31;52;45;
72793;PMS5003;63436;26.334;50.194;2023-01-04T14:45:47;51;48;
72793;PMS5003;63436;26.334;50.194;2023-01-04T14:48:12;50;49;
72793;PMS5003;63436;26.334;50.194;2023-01-04T14:50:38;48;44;
72793;PMS5003;63436;26.334;50.194;2023-01-04T14:53:03;48;47;
72793;PMS5003;63436;26.334;50.194;2023-01-04T14:55:28;53;49;
72793;PMS5003;63436;26.334;50.194;2023-01-04T14:57:54;48;43;
72793;PMS5003;63436;26.334;50.194;2023-01-04T15:00:19;45;43;
72793;PMS5003;63436;26.334;50.194;2023-01-04T15:02:44;47;46;
72793;PMS5003;63436;26.334;50.194;2023-01-04T15:05:09;46;45;
72793;PMS5003;63436;26.334;50.194;2023-01-04T15:07:35;50;46;
72793;PMS5003;63436;26.334;50.194;2023-01-04T15:10:00;51;48;
72793;PMS5003;63436;26.334;50.194;2023-01-04T15:12:26;45;43;
72793;PMS5003;63436;26.334;50.194;2023-01-04T15:14:51;48;48;
72793;PMS5003;63436;26.334;50.194;2023-01-04T15:17:16;53;48;
72793;PMS5003;63436;26.334;50.194;2023-01-04T15:19:43;49;46;
72793;PMS5003;63436;26.334;50.194;2023-01-04T15:22:08;42;42;
72793;PMS5003;63436;26.334;50.194;2023-01-04T15:24:33;52;45;
72793;PMS5003;63436;26.334;50.194;2023-01-04T15:26:59;47;45;
72793;PMS5003;63436;26.334;50.194;2023-01-04T15:29:25;50;50;
72793;PMS5003;63436;26.334;50.194;2023-01-04T15:31:50;46;44;
72793;PMS5003;63436;26.334;50.194;2023-01-04T15:34:15;53;46;
72793;PMS5003;63436;26.334;50.194;2023-01-04T15:36:41;51;50;
72793;PMS5003;63436;26.334;50.194;2023-01-04T15:39:06;51;46;
72793;PMS5003;63436;26.334;50.194;2023-01-04T15:41:31;51;47;
72793;PMS5003;63436;26.334;50.194;2023-01-04T15:43:57;50;50;
72793;PMS5003;63436;26.334;50.194;2023-01-04T15:46:22;53;49;
72793;PMS5003;63436;26.334;50.194;2023-01-04T15:48:48;61;56;
72793;PMS5003;63436;26.334;50.194;2023-01-04T15:51:13;58;50;